Taquari, Brazil
Current Conditions -  °F | °C
As of 6:00 AM on Wednesday 26 Nov 2014 (Local Time) from SBPA Reporting Station
Overcast Overcast  
Wind Chill: 72°   Ceiling: 2500
Heat Index: 72°   Visibility: 5mi
Dew Point: 70°   Wind: 6mph
Humidity: 94%   Direction: 330°NNW
Pressure: 29.77"   Gusts: NA
Location:  29.8°S, 51.86°W
Report Text: SBPA 260800Z 33005KT 8000 SCT008 OVC025 22/21 Q1008
Loading
Personal Weather Stations






























Interactive Weather Map New forecast layout! Learn more

10-Day Weather Forecast

Advertisements
Track Severe Weather on mobile